Latest Weather Observations for Moss Vale

IDN60801

Issued at 10:12 am EST Monday 16 September 2019 (issued every 10 minutes, with the page automatically refreshed every 10 minutes)

About weather observations | Map of weather stations | Latest weather observations for NSW | Other Formats
Station Details ID: 068239 Name: MOSS VALE AWS Lat: -34.53 Lon: 150.42 Height: 678.4 m
Data from the previous 72 hours. | See also: Recent months at Moss Vale
Date/Time
EST
Temp
°C
App
Temp
°C
Dew
Point
°C
Rel
Hum
%
Delta-T
°C
Wind Press
QNH
hPa
Press
MSL
hPa
Rain since
9am
mm
Dir  Spd
km/h
Gust
km/h
Spd
kts
Gust
kts
16/10:00am 20.8 12.1 -5.1 17 10.8 WNW 32 50 17 27 1016.1 1015.7 0.0
16/09:32am 21.7 13.5 -7.9 13 11.8 WNW 28 46 15 25 1016.3 1015.8 0.0
16/09:30am 21.6 13.0 -8.0 13 11.8 WNW 30 46 16 25 1016.1 1015.7 0.0
16/09:00am 20.0 13.3 -8.3 14 11.0 NW 20 33 11 18 1016.4 1015.9 0.0
16/08:30am 19.9 13.1 -9.3 13 11.1 NW 20 32 11 17 1016.5 1016.0 0.0
16/08:00am 17.7 11.9 -9.2 15 10.0 NW 15 20 8 11 1016.6 1016.1 0.0
16/07:30am 17.1 10.8 -10.6 14 9.9 NW 17 24 9 13 1016.5 1016.0 0.0
16/07:00am 17.0 11.0 -10.7 14 9.9 NW 15 20 8 11 1016.7 1016.2 0.0
16/06:30am 17.3 10.6 -10.4 14 10.0 NW 19 30 10 16 1016.4 1015.9 0.0
16/06:00am 16.7 10.0 -10.9 14 9.8 NNW 19 26 10 14 1016.5 1016.0 0.0
16/05:30am 15.9 10.3 -10.7 15 9.4 NW 13 19 7 10 1016.8 1016.3 0.0
16/05:00am 16.4 10.8 -11.1 14 9.7 WNW 13 24 7 13 1016.8 1016.3 0.0
16/04:30am 16.8 10.5 -10.8 14 9.8 NW 17 24 9 13 1016.7 1016.2 0.0
16/04:00am 17.3 10.6 -10.4 14 10.0 NW 19 28 10 15 1016.9 1016.5 0.0
16/03:30am 17.6 11.3 -10.2 14 10.1 NW 17 24 9 13 1017.0 1016.6 0.0
16/03:00am 17.4 11.1 -10.3 14 10.0 NW 17 28 9 15 1017.2 1016.8 0.0
16/02:30am 17.4 11.1 -10.3 14 10.0 NW 17 22 9 12 1017.4 1017.0 0.0
16/02:00am 17.0 11.6 -8.2 17 9.5 NW 13 19 7 10 1018.2 1017.8 0.0
16/01:30am 16.9 12.0 -7.5 18 9.3 NW 11 15 6 8 1018.8 1018.4 0.0
16/01:00am 16.9 12.0 -7.5 18 9.3 NW 11 15 6 8 1019.1 1018.7 0.0
16/12:30am 16.9 12.3 -7.5 18 9.3 NW 9 11 5 6 1019.3 1018.9 0.0
16/12:00am 17.4 12.1 -7.1 18 9.5 NW 13 19 7 10 1019.3 1018.9 0.0
 
Date/Time
EST
Temp
°C
App
Temp
°C
Dew
Point
°C
Rel
Hum
%
Delta-T
°C
Wind Press
QNH
hPa
Press
MSL
hPa
Rain since
9am
mm
Dir  Spd
km/h
Gust
km/h
Spd
kts
Gust
kts
15/11:30pm 17.4 12.2 -6.4 19 9.3 NW 13 17 7 9 1019.8 1019.4 0.0
15/11:00pm 17.1 12.4 -5.4 21 9.0 WNW 11 15 6 8 1020.0 1019.6 0.0
15/10:30pm 16.3 12.6 -3.2 26 8.1 NW 7 15 4 8 1020.2 1019.8 0.0
15/10:00pm 16.0 11.6 -2.5 28 7.8 N 11 15 6 8 1020.5 1020.1 0.0
15/09:30pm 17.3 12.3 -4.0 23 8.8 NNW 13 17 7 9 1020.5 1020.1 0.0
15/09:00pm 17.2 13.0 -3.5 24 8.6 NW 9 15 5 8 1020.7 1020.4 0.0
15/08:30pm 17.0 12.1 -3.7 24 8.6 WNW 13 17 7 9 1020.7 1020.4 0.0
15/08:00pm 16.6 11.7 -3.0 26 8.2 WNW 13 17 7 9 1020.9 1020.6 0.0
15/07:30pm 17.2 12.7 -3.5 24 8.6 NW 11 15 6 8 1020.9 1020.6 0.0
15/07:00pm 18.0 13.6 -2.8 24 8.8 NW 11 17 6 9 1020.7 1020.4 0.0
15/06:30pm 18.2 13.8 -2.1 25 8.8 NW 11 15 6 8 1020.6 1020.2 0.0
15/06:00pm 18.9 13.5 -1.5 25 9.0 WNW 17 26 9 14 1020.4 1020.0 0.0
15/05:30pm 20.0 14.0 -1.2 24 9.5 W 20 28 11 15 1020.1 1019.7 0.0
15/05:00pm 20.9 14.2 -1.0 23 9.9 W 24 33 13 18 1020.1 1019.7 0.0
15/04:30pm 21.8 16.0 -0.2 23 10.2 WNW 20 30 11 16 1020.0 1019.6 0.0
15/04:00pm 21.7 14.5 0.8 25 9.8 WNW 28 37 15 20 1020.1 1019.7 0.0
15/03:30pm 22.0 16.2 -0.1 23 10.3 WNW 20 30 11 16 1020.1 1019.7 0.0
15/03:00pm 21.6 15.3 -1.0 22 10.3 WNW 22 32 12 17 1020.2 1019.8 0.0
15/02:30pm 21.8 15.1 -0.8 22 10.3 W 24 32 13 17 1020.3 1019.9 0.0
15/02:00pm 23.6 16.9 -1.3 19 11.4 W 24 35 13 19 1020.2 1019.8 0.0
15/01:30pm 22.6 15.6 -3.7 17 11.5 WNW 24 33 13 18 1020.6 1020.2 0.0
15/01:00pm 22.4 16.3 -3.8 17 11.3 W 19 32 10 17 1021.1 1020.7 0.0
15/12:30pm 21.4 15.1 -5.4 16 11.2 WNW 19 30 10 16 1021.4 1021.0 0.0
15/12:00pm 21.0 13.9 -8.4 13 11.5 W 22 35 12 19 1021.9 1021.5 0.0
15/11:30am 22.2 15.8 -4.8 16 11.5 W 20 32 11 17 1022.2 1021.9 0.0
15/11:00am 20.7 14.0 -7.7 14 11.2 WSW 20 32 11 17 1022.7 1022.3 0.0
15/10:30am 19.8 12.0 -7.5 15 10.8 WSW 26 33 14 18 1022.9 1022.5 0.0
15/10:00am 19.4 12.9 -5.5 18 10.1 WSW 20 28 11 15 1023.1 1022.7 0.0
15/09:30am 17.3 11.1 -5.2 21 9.1 W 19 24 10 13 1023.5 1023.2 0.0
15/09:00am 16.0 10.4 -3.0 27 7.9 W 17 22 9 12 1023.4 1023.1 0.0
15/08:30am 13.9 8.5 -1.3 35 6.4 W 17 20 9 11 1023.6 1023.3 0.0
15/08:00am 12.1 7.2 -0.4 42 5.3 W 15 20 8 11 1023.6 1023.3 0.0
15/07:30am 9.3 5.8 1.0 56 3.5 WNW 9 13 5 7 1023.6 1023.3 0.0
15/07:00am 5.6 2.0 0.8 71 2.0 W 9 9 5 5 1023.4 1023.1 0.0
15/06:30am 5.8 1.8 0.6 69 2.1 W 11 15 6 8 1022.9 1022.5 0.0
15/06:00am 2.6 -1.5 -0.3 81 1.1 W 11 15 6 8 1022.9 1022.5 0.0
15/05:30am 4.4 0.4 0.7 77 1.5 W 11 15 6 8 1022.7 1022.3 0.0
15/05:00am 2.5 -0.7 0.7 88 0.7 W 7 9 4 5 1022.3 1022.0 0.0
15/04:30am 3.1 0.3 1.8 91 0.5 W 6 6 3 3 1022.0 1021.7 0.0
15/04:00am 2.1 -0.8 1.2 94 0.4 W 6 7 3 4 1022.0 1021.7 0.0
15/03:30am 3.2 0.5 2.5 95 0.3 WSW 6 11 3 6 1022.0 1021.7 0.0
15/03:00am 2.7 -0.1 1.8 94 0.4 W 6 9 3 5 1022.2 1021.9 0.0
15/02:47am 3.4 0.7 2.7 95 0.3 W 6 7 3 4 1022.2 1021.9 0.0
15/02:30am 3.9 2.5 3.3 96 0.3 CALM 0 0 0 0 1022.3 1022.0 0.0
15/02:17am 3.9 2.5 3.3 96 0.3 CALM 0 0 0 0 1022.4 1022.1 0.0
15/02:00am 3.7 2.2 3.0 95 0.3 CALM 0 0 0 0 1022.7 1022.3 0.0
15/01:30am 3.2 0.5 2.5 95 0.3 WNW 6 7 3 4 1023.1 1022.7 0.0
15/01:29am 3.5 0.8 2.8 95 0.3 WNW 6 7 3 4 1023.1 1022.7 0.0
15/01:13am 4.2 1.7 3.5 95 0.3 W 6 9 3 5 1023.3 1023.0 0.0
15/01:00am 4.0 1.4 3.3 95 0.3 W 6 7 3 4 1023.3 1023.0 0.0
15/12:30am 3.6 0.9 2.6 93 0.4 W 6 9 3 5 1023.6 1023.3 0.0
15/12:00am 5.6 4.1 5.0 96 0.3 N 2 7 1 4 1023.8 1023.5 0.0
 
Date/Time
EST
Temp
°C
App
Temp
°C
Dew
Point
°C
Rel
Hum
%
Delta-T
°C
Wind Press
QNH
hPa
Press
MSL
hPa
Rain since
9am
mm
Dir  Spd
km/h
Gust
km/h
Spd
kts
Gust
kts
14/11:30pm 5.6 3.7 4.9 95 0.3 N 4 6 2 3 1023.8 1023.5 0.0
14/11:00pm 5.4 4.2 4.4 93 0.4 CALM 0 0 0 0 1023.7 1023.4 0.0
14/10:50pm 5.3 3.2 4.0 91 0.6 N 4 7 2 4 1023.7 1023.4 0.0
14/10:30pm 6.4 3.6 5.2 92 0.5 NNE 9 11 5 6 1023.6 1023.3 0.0
14/10:00pm 5.6 2.9 3.8 88 0.8 NNE 7 9 4 5 1024.0 1023.7 0.0
14/09:30pm 6.5 3.2 4.7 88 0.8 N 11 17 6 9 1023.9 1023.6 0.0
14/09:00pm 7.3 4.6 5.4 88 0.9 N 9 11 5 6 1024.2 1023.8 0.0
14/08:30pm 7.5 5.2 5.6 88 0.9 N 7 11 4 6 1024.4 1024.0 0.0
14/08:00pm 7.9 5.8 5.7 86 1.0 ENE 6 9 3 5 1024.2 1023.8 0.0
14/07:30pm 7.9 5.7 5.4 84 1.2 ENE 6 9 3 5 1024.0 1023.7 0.0
14/07:00pm 8.6 6.3 5.7 82 1.4 ENE 7 9 4 5 1023.7 1023.4 0.0
14/06:30pm 9.2 6.2 5.9 80 1.6 E 11 15 6 8 1023.4 1023.1 0.0
14/06:00pm 10.4 7.1 6.2 75 2.0 E 13 17 7 9 1023.1 1022.7 0.0
14/05:30pm 12.2 8.3 6.9 70 2.6 ENE 17 20 9 11 1022.7 1022.3 0.0
14/05:00pm 13.7 9.5 7.5 66 3.1 ENE 19 24 10 13 1022.1 1021.8 0.0
14/04:30pm 15.1 10.7 7.2 59 4.0 ENE 20 24 11 13 1021.6 1021.2 0.0
14/04:00pm 19.5 13.9 -2.8 22 9.6 WSW 17 24 9 13 1021.4 1021.0 0.0
14/03:30pm 19.6 13.6 -3.3 21 9.8 WSW 19 26 10 14 1021.4 1021.0 0.0
14/03:00pm 19.6 13.4 -3.3 21 9.8 WSW 20 35 11 19 1021.5 1021.1 0.0
14/02:30pm 19.6 15.5 -0.4 26 9.1 WSW 11 26 6 14 1021.5 1021.1 0.0
14/02:00pm 18.9 13.1 -4.5 20 9.7 W 17 24 9 13 1021.9 1021.5 0.0
14/01:30pm 18.2 13.1 -2.1 25 8.8 WSW 15 30 8 16 1022.2 1021.9 0.0
14/01:00pm 18.0 12.7 -3.4 23 9.0 WSW 15 28 8 15 1022.3 1022.0 0.0
14/12:30pm 17.1 11.3 -4.8 22 8.9 WSW 17 24 9 13 1022.7 1022.3 0.0
14/12:00pm 17.0 13.3 0.2 32 7.5 WNW 9 17 5 9 1023.0 1022.6 0.0
14/11:30am 16.6 12.4 1.9 37 6.8 W 13 20 7 11 1023.3 1023.0 0.0
14/11:00am 15.0 11.1 1.2 39 6.2 SSE 11 17 6 9 1023.5 1023.2 0.0
14/10:30am 14.3 10.0 0.9 40 6.0 SSW 13 20 7 11 1023.8 1023.5 0.0
14/10:00am 13.7 9.3 2.6 47 5.1 S 15 20 8 11 1023.9 1023.6 0.0
14/09:30am 13.2 9.2 2.7 49 4.8 SSW 13 19 7 10 1024.2 1023.8 0.0
14/09:00am 12.4 8.1 3.4 54 4.1 SW 15 20 8 11 1024.2 1023.8 0.0
14/08:30am 11.5 7.9 2.8 55 3.9 S 11 17 6 9 1023.8 1023.5 0.0
14/08:00am 10.6 5.7 1.9 55 3.8 SW 17 24 9 13 1023.5 1023.2 0.0
14/07:30am 9.8 6.1 2.4 60 3.3 S 11 19 6 10 1023.2 1022.8 0.0
14/07:00am 8.7 4.9 1.8 62 3.0 SW 11 15 6 8 1022.6 1022.2 0.0
14/06:30am 7.4 3.8 0.4 61 2.9 SW 9 13 5 7 1022.2 1021.9 0.0
14/06:00am 7.0 2.5 -0.4 59 3.0 WSW 13 20 7 11 1021.9 1021.5 0.0
14/05:30am 8.1 1.9 -0.1 56 3.4 W 22 32 12 17 1021.4 1021.0 0.0
14/05:00am 8.3 2.0 -1.2 51 3.8 W 22 30 12 16 1020.8 1020.5 0.0
14/04:30am 8.7 1.9 -2.0 47 4.2 W 24 30 13 16 1020.5 1020.1 0.0
14/04:00am 9.1 1.4 -3.1 42 4.7 W 28 37 15 20 1020.1 1019.7 0.0
14/03:30am 9.6 1.8 -4.0 38 5.2 W 28 35 15 19 1020.2 1019.8 0.0
14/03:00am 9.8 1.2 -3.8 38 5.2 W 32 41 17 22 1020.1 1019.7 0.0
14/02:30am 10.0 1.9 -3.3 39 5.2 W 30 39 16 21 1020.2 1019.8 0.0
14/02:00am 10.6 2.2 -2.8 39 5.3 W 32 43 17 23 1020.2 1019.8 0.0
14/01:30am 10.6 3.4 -2.4 40 5.2 W 26 37 14 20 1020.2 1019.8 0.0
14/01:00am 10.7 3.1 -2.3 40 5.2 W 28 39 15 21 1020.3 1019.9 0.0
14/12:30am 11.0 2.8 -3.8 35 5.7 W 30 39 16 21 1020.5 1020.1 0.0
14/12:00am 11.2 3.8 -3.7 35 5.8 W 26 37 14 20 1020.7 1020.4 0.0
 
Date/Time
EST
Temp
°C
App
Temp
°C
Dew
Point
°C
Rel
Hum
%
Delta-T
°C
Wind Press
QNH
hPa
Press
MSL
hPa
Rain since
9am
mm
Dir  Spd
km/h
Gust
km/h
Spd
kts
Gust
kts
13/11:30pm 11.8 4.9 -2.4 37 5.7 W 24 32 13 17 1021.1 1020.7 0.0
13/11:00pm 12.1 5.4 -1.4 39 5.6 W 24 30 13 16 1021.2 1020.8 0.0
13/10:30pm 12.4 6.0 -1.5 38 5.8 W 22 32 12 17 1021.4 1021.0 0.0
13/10:00pm 12.9 6.9 -1.4 37 6.0 W 20 28 11 15 1021.5 1021.1 0.0
13/09:30pm 13.3 7.4 -2.2 34 6.4 WNW 19 26 10 14 1021.4 1021.0 0.0
13/09:00pm 14.1 8.2 -1.9 33 6.7 WNW 19 24 10 13 1021.1 1020.7 0.0
13/08:30pm 14.0 9.3 -1.6 34 6.6 WNW 13 17 7 9 1021.4 1021.0 0.0
13/08:00pm 15.2 9.1 -2.2 30 7.3 W 20 32 11 17 1021.9 1021.5 0.0
13/07:30pm 15.4 9.3 -2.1 30 7.4 W 20 28 11 15 1022.0 1021.7 0.0
13/07:00pm 15.7 10.4 -3.2 27 7.8 W 15 19 8 10 1022.0 1021.7 0.0
13/06:30pm 16.2 10.2 -2.8 27 8.0 W 19 26 10 14 1021.8 1021.4 0.0
13/06:00pm 16.8 10.5 -4.4 23 8.6 WNW 20 28 11 15 1021.5 1021.1 0.0
13/05:30pm 17.7 11.5 -3.1 24 8.8 W 20 28 11 15 1021.3 1020.9 0.0
13/05:00pm 18.0 11.4 -3.4 23 9.0 W 22 28 12 15 1020.8 1020.5 0.0
13/04:30pm 19.1 12.1 -3.7 21 9.6 W 24 33 13 18 1020.4 1020.0 0.0
13/04:00pm 20.1 13.2 -2.3 22 9.8 WNW 24 35 13 19 1020.3 1019.9 0.0
13/03:30pm 19.9 13.0 -5.8 17 10.5 WNW 22 35 12 19 1020.1 1019.7 0.0
13/03:00pm 19.7 14.4 -3.9 20 10.0 W 15 24 8 13 1020.1 1019.7 0.0
13/02:30pm 20.3 15.4 -3.4 20 10.2 WNW 13 24 7 13 1020.5 1020.1 0.0
13/02:00pm 19.4 13.3 -3.5 21 9.7 W 19 30 10 16 1020.8 1020.5 0.0
13/01:30pm 19.2 13.1 -3.6 21 9.7 WNW 19 26 10 14 1021.3 1020.9 0.0
13/01:00pm 18.5 14.1 0.2 29 8.3 WNW 13 22 7 12 1021.7 1021.3 0.0
13/12:30pm 18.7 15.2 3.7 37 7.3 NW 11 24 6 13 1022.1 1021.8 0.0
13/12:00pm 17.1 13.3 4.1 42 6.3 W 13 19 7 10 1022.8 1022.4 0.0
13/11:30am 17.0 14.3 2.6 38 6.8 WNW 6 19 3 10 1023.1 1022.7 0.0
13/11:00am 15.6 12.2 2.1 40 6.2 WNW 9 17 5 9 1023.7 1023.4 0.0
13/10:30am 14.5 12.0 5.0 53 4.6 SE 7 13 4 7 1023.9 1023.6 0.0

Other formats

Comma delimited format used in spreadsheet applications
http://www.bom.gov.au/fwo/IDN60801/IDN60801.94746.axf

JavaScript Object Notation format (JSON) in row-major order
http://www.bom.gov.au/fwo/IDN60801/IDN60801.94746.json

Data quality

Most of these data are generated automatically and are frequently updated. Quality checks on data are not normally performed. It is possible for incorrect values to appear. Refer to information at About Latest Weather Observations and please check the disclaimer before using these data.